Time;durP1;ratioP1;P1;durP2;ratioP2;P2;SDS_P1;SDS_P2;PMS_P1;PMS_P2;Temp;Humidity;BMP_temperature;BMP_pressure;BME280_temperature;BME280_humidity;BME280_pressure;Samples;Min_cycle;Max_cycle;Signal;HPM_P1;HPM_P2
2022/12/15 00:41:01;;;;;;;27.07;19.12;;;3.90;99.90;;;;;;2018644;69;22207;-88
2022/12/15 00:43:52;;;;;;;27.20;18.02;;;3.90;99.90;;;;;;1980709;72;21082;-88
2022/12/15 00:46:56;;;;;;;25.35;17.65;;;3.90;99.90;;;;;;1952075;72;21155;-88
2022/12/15 01:20:16;;;;;;;31.17;16.00;;;3.60;99.90;;;;;;1914431;75;21091;-87
2022/12/15 01:23:08;;;;;;;28.70;16.10;;;3.60;99.90;;;;;;1892253;75;21411;-88
2022/12/15 01:25:59;;;;;;;23.10;15.40;;;3.60;99.90;;;;;;1889750;75;21217;-88
2022/12/15 01:28:51;;;;;;;30.60;16.15;;;3.60;99.90;;;;;;1909569;75;21118;-88
2022/12/15 01:31:45;;;;;;;55.70;18.07;;;3.60;99.90;;;;;;1914776;75;21140;-88
2022/12/15 01:34:39;;;;;;;38.50;17.70;;;3.60;99.90;;;;;;1906928;75;21098;-88
2022/12/15 01:37:30;;;;;;;31.60;16.57;;;3.60;99.90;;;;;;1913524;75;21065;-88
2022/12/15 01:43:33;;;;;;;44.23;15.93;;;3.70;99.90;;;;;;1907828;75;21146;-88
2022/12/15 01:46:26;;;;;;;86.32;16.82;;;3.60;99.90;;;;;;1887900;75;21051;-87
2022/12/15 02:05:40;;;;;;;71.65;17.12;;;3.30;99.90;;;;;;1960660;72;22222;-88
2022/12/15 02:11:37;;;;;;;38.00;16.07;;;3.40;99.90;;;;;;1944672;72;22280;-88
2022/12/15 02:15:01;;;;;;;46.25;15.45;;;3.40;99.90;;;;;;1940656;73;21078;-88
2022/12/15 02:20:50;;;;;;;38.15;15.43;;;3.40;99.90;;;;;;1960127;72;22338;-89
2022/12/15 02:24:22;;;;;;;45.63;14.20;;;3.30;99.90;;;;;;1922214;73;21243;-88
2022/12/15 02:30:28;;;;;;;40.15;14.80;;;3.20;99.90;;;;;;1915283;72;22514;-88
2022/12/15 02:36:02;;;;;;;56.35;15.40;;;3.20;99.90;;;;;;1944438;72;22244;-88
2022/12/15 02:38:54;;;;;;;88.60;17.57;;;3.20;99.90;;;;;;1887092;75;21132;-88
2022/12/15 02:41:47;;;;;;;58.48;16.57;;;3.20;99.90;;;;;;1881806;75;21083;-87
2022/12/15 02:44:42;;;;;;;41.88;15.38;;;3.20;99.90;;;;;;1885472;75;21114;-89
2022/12/15 02:47:37;;;;;;;43.87;14.18;;;3.20;99.90;;;;;;1877398;75;21184;-88
2022/12/15 02:50:45;;;;;;;22.75;13.98;;;3.20;99.90;;;;;;1890363;75;21134;-87
2022/12/15 02:56:33;;;;;;;26.07;13.05;;;3.20;99.90;;;;;;2019139;69;22036;-87
2022/12/15 02:59:27;;;;;;;20.00;12.78;;;3.20;99.90;;;;;;1985913;72;21098;-89
2022/12/15 03:02:19;;;;;;;31.00;13.80;;;3.20;99.90;;;;;;1970824;72;21090;-88
2022/12/15 03:05:12;;;;;;;35.65;15.05;;;3.20;99.90;;;;;;1979092;72;21032;-87
2022/12/15 03:10:45;;;;;;;45.25;14.95;;;3.10;99.90;;;;;;1934652;72;22139;-88
2022/12/15 03:13:36;;;;;;;33.73;14.28;;;3.00;99.90;;;;;;1910035;74;21160;-88
2022/12/15 03:16:28;;;;;;;34.98;14.03;;;3.00;99.90;;;;;;1827274;77;21132;-88
2022/12/15 03:19:20;;;;;;;36.98;14.87;;;3.00;99.90;;;;;;1893589;75;21153;-88
2022/12/15 03:22:11;;;;;;;34.88;14.47;;;3.00;99.90;;;;;;1884969;75;21043;-88
2022/12/15 03:25:03;;;;;;;29.40;14.35;;;3.10;99.90;;;;;;1906581;75;21162;-87
2022/12/15 03:33:18;;;;;;;30.75;13.50;;;3.10;99.90;;;;;;1942971;72;22743;-87
2022/12/15 03:36:11;;;;;;;27.67;12.63;;;3.10;99.90;;;;;;1926546;73;21066;-87
2022/12/15 03:41:51;;;;;;;22.25;13.38;;;3.10;99.90;;;;;;1914035;72;22251;-88
2022/12/15 03:44:42;;;;;;;20.15;12.28;;;3.20;99.90;;;;;;1846697;76;21191;-89
2022/12/15 03:47:33;;;;;;;20.97;12.30;;;3.20;99.90;;;;;;1888050;73;21118;-88
2022/12/15 03:50:27;;;;;;;23.25;13.08;;;3.20;99.90;;;;;;1863376;76;21112;-88
2022/12/15 03:56:04;;;;;;;29.80;11.78;;;3.00;99.90;;;;;;1948384;72;20145;-88
2022/12/15 03:58:55;;;;;;;30.55;12.23;;;2.90;99.90;;;;;;1927242;73;21514;-88
2022/12/15 04:01:49;;;;;;;24.10;11.95;;;2.90;99.90;;;;;;1917207;75;21062;-88
2022/12/15 04:04:40;;;;;;;26.70;10.65;;;2.80;99.90;;;;;;1917252;75;21109;-87
2022/12/15 04:07:32;;;;;;;25.92;11.88;;;2.80;99.90;;;;;;1942624;73;21151;-87
2022/12/15 04:10:25;;;;;;;34.92;11.35;;;2.80;99.90;;;;;;1917388;73;21164;-87
2022/12/15 04:15:59;;;;;;;46.15;11.00;;;2.80;99.90;;;;;;1961716;72;22218;-88
2022/12/15 04:20:07;;;;;;;28.87;10.15;;;2.80;99.90;;;;;;1899069;74;21094;-88
2022/12/15 04:21:44;;;;;;;19.82;10.68;;;2.90;99.90;;;;;;1904497;75;21097;-88
2022/12/15 05:31:57;;;;;;;20.37;10.25;;;3.20;99.90;;;;;;1880007;75;21068;-88
2022/12/15 05:34:49;;;;;;;28.90;11.03;;;3.10;99.90;;;;;;1893015;75;21102;-87
2022/12/15 05:43:03;;;;;;;34.10;12.90;;;3.10;99.90;;;;;;1950273;72;22151;-88
2022/12/15 05:48:33;;;;;;;27.30;12.43;;;3.10;99.90;;;;;;1951253;72;22305;-88
2022/12/15 05:51:25;;;;;;;25.48;13.40;;;3.20;99.90;;;;;;1873970;76;21119;-88
2022/12/15 05:54:19;;;;;;;25.80;13.03;;;3.20;99.90;;;;;;1909302;75;21380;-88
2022/12/15 05:57:11;;;;;;;27.42;13.22;;;3.20;99.90;;;;;;1902887;75;21089;-89
2022/12/15 06:00:03;;;;;;;23.85;13.60;;;3.20;99.90;;;;;;1901139;75;21143;-88
2022/12/15 06:05:37;;;;;;;24.77;13.32;;;3.20;99.90;;;;;;1951486;72;22194;-88
2022/12/15 06:08:33;;;;;;;21.68;12.75;;;3.10;99.90;;;;;;1872543;75;21087;-87
2022/12/15 06:11:24;;;;;;;19.40;12.20;;;3.10;99.90;;;;;;1875325;75;21149;-88
2022/12/15 06:14:16;;;;;;;22.58;12.73;;;3.10;99.90;;;;;;1894235;75;21136;-87
2022/12/15 06:20:02;;;;;;;28.17;13.38;;;3.10;99.90;;;;;;1962562;72;22082;-88
2022/12/15 06:22:53;;;;;;;22.42;13.35;;;3.10;99.90;;;;;;1900525;75;21090;-88
2022/12/15 06:25:45;;;;;;;24.52;12.70;;;3.00;99.90;;;;;;1905167;75;21147;-88
2022/12/15 06:28:37;;;;;;;19.90;12.82;;;3.00;99.90;;;;;;1908624;74;21292;-88
2022/12/15 06:31:32;;;;;;;19.87;12.15;;;3.00;99.90;;;;;;1904635;74;21165;-88
2022/12/15 06:34:24;;;;;;;21.73;12.05;;;3.00;99.90;;;;;;1904587;75;21083;-88
2022/12/15 06:37:19;;;;;;;15.98;11.33;;;3.00;99.90;;;;;;1905374;74;21125;-89
2022/12/15 06:40:12;;;;;;;15.40;11.08;;;3.00;99.90;;;;;;1926949;74;21135;-88
2022/12/15 06:45:49;;;;;;;14.93;10.78;;;3.00;99.90;;;;;;1935551;72;22133;-88
2022/12/15 06:48:43;;;;;;;13.50;10.23;;;3.00;99.90;;;;;;1880846;75;21208;-88
2022/12/15 06:51:35;;;;;;;13.30;9.48;;;3.10;99.90;;;;;;1883380;75;21453;-88
2022/12/15 06:54:26;;;;;;;16.97;10.18;;;3.10;99.90;;;;;;1891395;74;21147;-88
2022/12/15 06:57:18;;;;;;;16.32;9.95;;;3.10;99.90;;;;;;1882565;75;21111;-85
2022/12/15 07:00:12;;;;;;;15.88;9.98;;;3.10;99.90;;;;;;1877088;75;21120;-87
2022/12/15 07:03:03;;;;;;;13.20;8.98;;;3.20;99.90;;;;;;1883618;74;21127;-86
2022/12/15 07:06:04;;;;;;;12.33;7.67;;;3.10;99.90;;;;;;1902056;74;21640;-87
2022/12/15 07:08:59;;;;;;;13.78;9.13;;;3.10;99.90;;;;;;1886776;75;21201;-86
2022/12/15 07:11:51;;;;;;;17.75;10.05;;;3.20;99.90;;;;;;1901658;74;21052;-89
2022/12/15 07:14:43;;;;;;;13.43;8.58;;;3.20;99.90;;;;;;1896850;75;21160;-89
2022/12/15 07:17:37;;;;;;;15.95;9.10;;;3.20;99.90;;;;;;1903457;74;21117;-87
2022/12/15 07:20:29;;;;;;;12.60;8.35;;;3.20;99.90;;;;;;1881308;74;21189;-88
2022/12/15 07:26:03;;;;;;;12.75;9.53;;;3.30;99.90;;;;;;1927558;72;22149;-87
2022/12/15 07:31:35;;;;;;;15.70;9.85;;;3.40;99.90;;;;;;1933966;72;22233;-86
2022/12/15 07:34:27;;;;;;;12.20;9.30;;;3.30;99.90;;;;;;1901184;75;21130;-87
2022/12/15 07:37:19;;;;;;;13.28;8.85;;;3.30;99.90;;;;;;1884040;75;21518;-86
2022/12/15 07:40:11;;;;;;;12.35;9.03;;;3.30;99.90;;;;;;1900662;75;21132;-86
2022/12/15 07:45:54;;;;;;;12.18;8.68;;;3.30;99.90;;;;;;1938953;72;22159;-87
2022/12/15 07:54:20;;;;;;;9.70;7.37;;;3.40;99.90;;;;;;1922967;74;20206;-84
2022/12/15 07:57:12;;;;;;;13.70;9.08;;;3.40;99.90;;;;;;1919584;74;21151;-85
2022/12/15 08:02:45;;;;;;;11.10;8.23;;;3.40;99.90;;;;;;1951897;72;22224;-86
2022/12/15 08:05:53;;;;;;;10.53;7.42;;;3.50;99.90;;;;;;1919421;74;21131;-86
2022/12/15 08:08:48;;;;;;;12.98;7.40;;;3.50;99.90;;;;;;1908560;74;21144;-86
2022/12/15 08:11:42;;;;;;;11.68;8.23;;;3.60;99.90;;;;;;1918201;74;21047;-86
2022/12/15 08:14:35;;;;;;;8.80;6.80;;;3.60;99.90;;;;;;1914562;74;21185;-86
2022/12/15 08:17:27;;;;;;;10.53;7.58;;;3.60;99.90;;;;;;1925297;74;21134;-86
2022/12/15 08:20:19;;;;;;;9.23;7.22;;;3.60;99.90;;;;;;1927876;74;21095;-86
2022/12/15 08:23:10;;;;;;;9.65;7.58;;;3.60;99.90;;;;;;1938102;74;21200;-86
2022/12/15 08:28:45;;;;;;;10.05;7.60;;;3.60;99.90;;;;;;1945921;72;22260;-86
2022/12/15 08:31:40;;;;;;;8.70;7.58;;;3.60;99.90;;;;;;1915936;73;21071;-86
2022/12/15 08:34:32;;;;;;;7.78;6.50;;;3.70;99.90;;;;;;1922957;74;21160;-85
2022/12/15 08:37:24;;;;;;;11.43;7.97;;;3.80;99.90;;;;;;1922597;74;21137;-86
2022/12/15 08:43:07;;;;;;;13.08;8.75;;;3.80;99.90;;;;;;1931267;72;22264;-85
2022/12/15 08:46:00;;;;;;;13.83;9.30;;;3.80;99.90;;;;;;1922415;73;21220;-85
2022/12/15 08:51:45;;;;;;;20.43;12.18;;;3.80;99.90;;;;;;1975575;72;22126;-86
2022/12/15 08:54:39;;;;;;;22.32;13.50;;;3.80;99.90;;;;;;1919380;73;21191;-87
2022/12/15 09:00:13;;;;;;;18.17;10.85;;;3.90;99.90;;;;;;1933563;72;22239;-86
2022/12/15 09:05:45;;;;;;;11.40;8.48;;;3.90;99.90;;;;;;1931624;72;22218;-86
2022/12/15 09:11:22;;;;;;;12.47;8.45;;;3.90;99.90;;;;;;1939483;72;22217;-86
2022/12/15 09:16:53;;;;;;;12.75;9.10;;;4.00;99.90;;;;;;1956290;72;22264;-86
2022/12/15 09:19:45;;;;;;;14.30;8.95;;;4.00;99.90;;;;;;1883615;75;21126;-86
2022/12/15 09:22:40;;;;;;;13.85;9.65;;;4.10;99.90;;;;;;1894988;75;21071;-86
2022/12/15 09:25:32;;;;;;;13.83;9.08;;;4.10;99.90;;;;;;1879227;75;21116;-86
2022/12/15 09:28:25;;;;;;;17.45;9.35;;;4.20;99.90;;;;;;1903308;75;21088;-86
2022/12/15 09:31:20;;;;;;;13.65;9.35;;;4.20;99.90;;;;;;1892178;75;21077;-86
2022/12/15 09:34:15;;;;;;;14.60;9.50;;;4.20;99.90;;;;;;1883829;75;21102;-86
2022/12/15 09:37:07;;;;;;;14.43;9.35;;;4.10;99.90;;;;;;1872290;75;21135;-85
2022/12/15 09:39:59;;;;;;;16.85;10.00;;;4.20;99.90;;;;;;1875830;75;21095;-86
2022/12/15 09:48:28;;;;;;;13.00;9.80;;;4.30;99.90;;;;;;1962236;72;22220;-86
2022/12/15 09:51:21;;;;;;;12.70;9.10;;;4.30;99.90;;;;;;1944356;73;21122;-86
2022/12/15 09:54:12;;;;;;;13.43;8.98;;;4.30;99.90;;;;;;1931914;73;21164;-87
2022/12/15 09:59:57;;;;;;;13.60;8.85;;;4.30;99.90;;;;;;2012161;69;22203;-85
2022/12/15 10:03:26;;;;;;;12.60;8.75;;;4.30;99.90;;;;;;1979824;70;21200;-85
2022/12/15 10:06:20;;;;;;;11.45;7.78;;;4.30;99.90;;;;;;1996448;70;21159;-86
2022/12/15 10:09:19;;;;;;;12.73;8.88;;;4.30;99.90;;;;;;1977005;70;21513;-85
2022/12/15 10:12:15;;;;;;;11.95;7.55;;;4.30;99.90;;;;;;2020607;69;21145;-85
2022/12/15 10:15:13;;;;;;;10.48;7.45;;;4.30;99.90;;;;;;1965110;71;21169;-86
2022/12/15 10:18:08;;;;;;;14.07;9.10;;;4.30;99.90;;;;;;2000106;69;21247;-85
2022/12/15 10:21:02;;;;;;;13.18;9.20;;;4.40;99.90;;;;;;1978617;69;21083;-86
2022/12/15 10:23:57;;;;;;;13.65;9.03;;;4.40;99.90;;;;;;1990274;70;21101;-85
2022/12/15 10:26:57;;;;;;;14.05;8.73;;;4.50;99.90;;;;;;1986066;70;21150;-86
2022/12/15 10:29:55;;;;;;;17.12;9.43;;;4.40;99.90;;;;;;1987289;70;21097;-85
2022/12/15 10:35:33;;;;;;;19.02;11.95;;;4.50;99.90;;;;;;1953619;72;22274;-86
2022/12/15 10:41:11;;;;;;;18.17;12.28;;;4.50;99.90;;;;;;1935744;72;22135;-86
2022/12/15 10:46:47;;;;;;;17.82;11.28;;;4.60;99.90;;;;;;1940606;72;22200;-86
2022/12/15 10:49:40;;;;;;;16.62;10.53;;;4.70;99.90;;;;;;1869889;76;21208;-86
2022/12/15 10:52:36;;;;;;;17.45;11.10;;;4.70;99.90;;;;;;1903177;74;21200;-85
2022/12/15 10:55:38;;;;;;;16.90;11.80;;;4.70;99.90;;;;;;1902804;75;21143;-86
2022/12/15 11:01:13;;;;;;;21.27;13.80;;;4.70;99.90;;;;;;1947452;72;22420;-86
2022/12/15 11:06:44;;;;;;;21.37;13.03;;;4.70;99.90;;;;;;1946299;72;22234;-86
2022/12/15 11:15:49;;;;;;;20.45;13.58;;;4.80;99.90;;;;;;1878424;75;21099;-86
2022/12/15 11:18:44;;;;;;;18.85;12.45;;;4.80;99.90;;;;;;1880935;75;21110;-86
2022/12/15 11:21:40;;;;;;;18.30;11.97;;;4.80;99.90;;;;;;1893426;75;21205;-86
2022/12/15 11:27:21;;;;;;;17.50;11.38;;;4.80;99.90;;;;;;1944541;72;22906;-87
2022/12/15 11:30:15;;;;;;;15.80;10.68;;;4.80;99.90;;;;;;1910104;73;21058;-86
2022/12/15 11:35:53;;;;;;;19.98;12.03;;;4.90;99.90;;;;;;1956338;72;22143;-86
2022/12/15 11:41:34;;;;;;;17.15;12.13;;;5.00;99.90;;;;;;1938557;72;22224;-86
2022/12/15 11:44:32;;;;;;;17.07;11.48;;;5.00;99.90;;;;;;1887511;74;21224;-86
2022/12/15 11:47:29;;;;;;;15.08;10.03;;;5.00;99.90;;;;;;1901187;75;21370;-87
2022/12/15 11:50:31;;;;;;;18.70;11.25;;;5.00;99.90;;;;;;1889338;75;21117;-87
2022/12/15 11:56:53;;;;;;;16.77;10.45;;;5.10;99.90;;;;;;1960150;72;22224;-87
2022/12/15 11:59:54;;;;;;;16.80;11.00;;;5.10;99.90;;;;;;1934954;73;21138;-87
2022/12/15 12:05:54;;;;;;;18.87;12.20;;;5.20;99.90;;;;;;1935722;72;22162;-87
2022/12/15 12:11:55;;;;;;;19.92;14.50;;;5.20;99.90;;;;;;1916532;72;28070;-87
2022/12/15 12:14:54;;;;;;;17.65;12.00;;;5.30;99.90;;;;;;1881112;75;21064;-86
2022/12/15 12:17:49;;;;;;;19.40;11.60;;;5.30;99.90;;;;;;1872843;75;21114;-86
2022/12/15 12:23:28;;;;;;;18.40;11.45;;;5.30;99.90;;;;;;1949571;72;22229;-86
2022/12/15 12:26:25;;;;;;;19.07;13.43;;;5.30;99.90;;;;;;1889337;75;21114;-86
2022/12/15 12:32:08;;;;;;;17.12;11.25;;;5.20;99.90;;;;;;1931366;72;22309;-87
2022/12/15 12:35:04;;;;;;;18.03;12.57;;;5.20;99.90;;;;;;1918343;74;21099;-86
2022/12/15 12:40:54;;;;;;;19.37;11.85;;;5.10;99.90;;;;;;1959096;72;20249;-86
2022/12/15 12:46:28;;;;;;;17.65;12.25;;;5.10;99.90;;;;;;1947126;72;22274;-86
2022/12/15 12:52:07;;;;;;;15.72;10.90;;;5.00;99.90;;;;;;1956475;72;22186;-87
2022/12/15 12:55:01;;;;;;;13.62;10.25;;;5.00;99.90;;;;;;1912451;75;21055;-86
2022/12/15 12:57:55;;;;;;;14.70;9.85;;;5.00;99.90;;;;;;1904418;75;21106;-86
2022/12/15 13:01:04;;;;;;;13.68;9.63;;;5.00;99.90;;;;;;1906029;75;21181;-86
2022/12/15 13:04:10;;;;;;;14.03;10.48;;;5.10;99.90;;;;;;1900014;75;21109;-86
2022/12/15 13:07:05;;;;;;;14.98;10.48;;;5.10;99.90;;;;;;1893491;75;21105;-87
2022/12/15 13:10:07;;;;;;;16.07;10.28;;;5.20;99.90;;;;;;1913423;74;21055;-86
2022/12/15 13:15:43;;;;;;;13.78;10.90;;;5.20;99.90;;;;;;1937719;72;22166;-86
2022/12/15 13:19:02;;;;;;;16.45;11.15;;;5.20;99.90;;;;;;1905849;75;21113;-87
2022/12/15 13:21:55;;;;;;;14.45;9.88;;;5.10;99.90;;;;;;1907570;75;21323;-86
2022/12/15 13:24:51;;;;;;;19.50;10.53;;;5.10;99.90;;;;;;1905276;75;21083;-86
2022/12/15 13:27:43;;;;;;;13.65;9.73;;;5.10;99.90;;;;;;1900363;75;21103;-86
2022/12/15 13:30:37;;;;;;;11.93;8.80;;;5.10;99.90;;;;;;1896965;75;21055;-86
2022/12/15 13:33:29;;;;;;;12.82;9.25;;;5.10;99.90;;;;;;1909281;75;21128;-87
2022/12/15 13:36:53;;;;;;;11.73;8.83;;;5.10;99.90;;;;;;1883663;75;21160;-87
2022/12/15 13:39:57;;;;;;;13.88;10.20;;;5.10;99.90;;;;;;1905953;75;21322;-87
2022/12/15 13:42:50;;;;;;;14.07;9.40;;;5.10;99.90;;;;;;1906380;75;21083;-88
2022/12/15 13:45:50;;;;;;;13.30;9.90;;;5.10;99.90;;;;;;1884272;75;21122;-87
2022/12/15 13:48:45;;;;;;;16.57;10.38;;;5.20;99.90;;;;;;1884270;76;21088;-86
2022/12/15 13:51:44;;;;;;;13.20;10.23;;;5.20;99.90;;;;;;1840595;77;21137;-86
2022/12/15 13:54:41;;;;;;;12.20;9.48;;;5.10;99.90;;;;;;1895257;75;21063;-87
2022/12/15 13:57:36;;;;;;;12.25;9.93;;;5.20;99.90;;;;;;1895211;75;21180;-87
2022/12/15 14:00:28;;;;;;;13.55;10.03;;;5.20;99.90;;;;;;1895705;75;21113;-86
2022/12/15 14:03:20;;;;;;;11.43;9.43;;;5.20;99.90;;;;;;1900781;75;21145;-86
2022/12/15 14:06:15;;;;;;;14.20;10.63;;;5.20;99.90;;;;;;1896075;75;21095;-86
2022/12/15 14:09:15;;;;;;;13.83;10.78;;;5.20;99.90;;;;;;1893464;75;21067;-87
2022/12/15 14:12:08;;;;;;;14.23;10.58;;;5.20;99.90;;;;;;1914278;75;21187;-86
2022/12/15 14:17:41;;;;;;;14.47;10.25;;;5.20;99.90;;;;;;1955750;72;22303;-87
2022/12/15 14:20:35;;;;;;;13.45;10.88;;;5.20;99.90;;;;;;1896266;74;21199;-86
2022/12/15 14:23:28;;;;;;;15.13;10.82;;;5.20;99.90;;;;;;1895101;75;21159;-86
2022/12/15 14:26:22;;;;;;;13.98;10.50;;;5.20;99.90;;;;;;1897226;75;21131;-87
2022/12/15 14:29:13;;;;;;;13.20;10.45;;;5.20;99.90;;;;;;1898723;75;21142;-86
2022/12/15 14:32:09;;;;;;;14.50;10.45;;;5.20;99.90;;;;;;1896033;75;21095;-86
2022/12/15 14:35:01;;;;;;;14.20;10.63;;;5.30;99.90;;;;;;1895551;75;21165;-88
2022/12/15 14:37:55;;;;;;;13.22;10.82;;;5.40;99.90;;;;;;1916275;75;21083;-87
2022/12/15 14:40:48;;;;;;;14.23;10.85;;;5.40;99.90;;;;;;1884256;76;21434;-85
2022/12/15 14:43:41;;;;;;;13.90;10.13;;;5.40;99.90;;;;;;1898311;75;21091;-86
2022/12/15 14:46:35;;;;;;;16.02;10.15;;;5.40;99.90;;;;;;1894515;75;21157;-87
2022/12/15 14:49:32;;;;;;;12.58;10.28;;;5.30;99.90;;;;;;1894453;75;21116;-87
2022/12/15 14:52:29;;;;;;;14.23;10.45;;;5.40;99.90;;;;;;1895449;75;21101;-87
2022/12/15 14:55:32;;;;;;;12.35;10.08;;;5.40;99.90;;;;;;1901637;75;21087;-87
2022/12/15 15:01:25;;;;;;;14.68;11.08;;;5.40;99.90;;;;;;1943836;72;22307;-87
2022/12/15 15:04:27;;;;;;;12.85;10.18;;;5.40;99.90;;;;;;1859846;76;21113;-87
2022/12/15 15:07:20;;;;;;;14.13;10.40;;;5.40;99.90;;;;;;1917260;75;21227;-86
2022/12/15 15:10:23;;;;;;;15.03;11.60;;;5.50;99.90;;;;;;1917249;75;21090;-89
2022/12/15 15:13:19;;;;;;;15.32;10.30;;;5.50;99.90;;;;;;1935752;73;21179;-88
2022/12/15 15:16:15;;;;;;;13.15;10.40;;;5.40;99.90;;;;;;1936097;73;21208;-88
2022/12/15 15:19:07;;;;;;;13.60;10.15;;;5.40;99.90;;;;;;1863660;76;21179;-88
2022/12/15 15:22:00;;;;;;;14.87;10.35;;;5.50;99.90;;;;;;1917074;75;21205;-87
2022/12/15 15:24:53;;;;;;;13.35;10.13;;;5.50;99.90;;;;;;1917434;75;21055;-87
2022/12/15 15:27:44;;;;;;;11.68;10.05;;;5.50;99.90;;;;;;1936027;73;21099;-87
2022/12/15 15:30:43;;;;;;;13.25;9.80;;;5.50;99.90;;;;;;1917269;75;21183;-87
2022/12/15 15:33:39;;;;;;;15.35;11.40;;;5.60;99.90;;;;;;1917894;75;21212;-87
2022/12/15 15:36:33;;;;;;;16.52;10.23;;;5.60;99.90;;;;;;1917168;75;21124;-87
2022/12/15 15:39:25;;;;;;;13.70;10.68;;;5.50;99.90;;;;;;1939315;73;21204;-89
2022/12/15 15:42:17;;;;;;;14.85;10.68;;;5.50;99.90;;;;;;1934335;73;21114;-87
2022/12/15 15:45:13;;;;;;;11.33;9.63;;;5.50;99.90;;;;;;1917083;75;21123;-87
2022/12/15 15:48:05;;;;;;;11.22;9.65;;;5.50;99.90;;;;;;1917316;75;21155;-86
2022/12/15 15:51:00;;;;;;;13.03;9.55;;;5.60;99.90;;;;;;1918897;73;21100;-87
2022/12/15 15:53:53;;;;;;;13.10;10.08;;;5.60;99.90;;;;;;1951022;73;21102;-89
2022/12/15 15:56:45;;;;;;;14.45;10.80;;;5.60;99.90;;;;;;1917140;75;21087;-89
2022/12/15 15:59:41;;;;;;;13.78;10.28;;;5.70;99.90;;;;;;1917616;75;21171;-87
2022/12/15 16:02:31;;;;;;;12.13;10.30;;;5.80;99.90;;;;;;1917391;75;21147;-87
2022/12/15 16:05:23;;;;;;;11.78;9.55;;;5.80;99.90;;;;;;1860386;76;21075;-87
2022/12/15 16:08:18;;;;;;;11.05;8.35;;;5.80;99.90;;;;;;1917164;75;21142;-87
2022/12/15 16:11:12;;;;;;;10.30;8.73;;;5.80;99.90;;;;;;1928463;73;21098;-87
2022/12/15 16:14:03;;;;;;;10.78;8.98;;;5.90;99.90;;;;;;1920496;73;21043;-86
2022/12/15 16:16:58;;;;;;;10.60;8.68;;;5.80;99.90;;;;;;1916587;75;21195;-87
2022/12/15 16:19:53;;;;;;;12.55;9.33;;;5.90;99.90;;;;;;1916689;75;21184;-87
2022/12/15 16:22:50;;;;;;;12.30;9.90;;;5.90;99.90;;;;;;1916513;75;21074;-87
2022/12/15 16:25:46;;;;;;;13.45;9.50;;;5.90;99.90;;;;;;1939059;73;21106;-87
2022/12/15 16:28:39;;;;;;;11.50;9.20;;;5.90;99.90;;;;;;1916319;75;21460;-86
2022/12/15 16:31:34;;;;;;;11.75;9.38;;;5.90;99.90;;;;;;1916575;73;21110;-87
2022/12/15 16:34:28;;;;;;;12.05;9.08;;;6.00;99.90;;;;;;1916765;75;21075;-87
2022/12/15 16:37:25;;;;;;;13.50;9.85;;;6.00;99.90;;;;;;1916624;75;21102;-87
2022/12/15 16:40:22;;;;;;;12.30;9.35;;;5.90;99.90;;;;;;1939130;73;21095;-87
2022/12/15 16:46:00;;;;;;;15.20;13.10;;;5.90;99.90;;;;;;1919127;72;28959;-87
2022/12/15 16:48:52;;;;;;;13.50;11.25;;;6.10;99.90;;;;;;1900404;75;21350;-87
2022/12/15 16:51:47;;;;;;;14.53;11.25;;;6.10;99.90;;;;;;1883960;76;21160;-87
2022/12/15 16:54:39;;;;;;;17.27;11.90;;;6.00;99.90;;;;;;1906078;75;21114;-87
2022/12/15 16:57:31;;;;;;;14.43;10.95;;;6.00;99.90;;;;;;1884110;75;21113;-86
2022/12/15 17:00:25;;;;;;;14.90;10.65;;;6.00;99.90;;;;;;1848602;77;21125;-86
2022/12/15 17:03:18;;;;;;;13.90;10.58;;;5.90;99.90;;;;;;1897928;75;21353;-88
2022/12/15 17:06:11;;;;;;;14.35;10.53;;;5.90;99.90;;;;;;1895113;75;21087;-86
2022/12/15 17:09:03;;;;;;;15.60;12.45;;;6.00;99.90;;;;;;1912039;75;21106;-86
2022/12/15 17:11:55;;;;;;;15.43;11.55;;;5.90;99.90;;;;;;1906030;75;21099;-86
2022/12/15 17:14:47;;;;;;;15.15;11.05;;;5.90;99.90;;;;;;1900136;75;21139;-87
2022/12/15 17:17:40;;;;;;;13.78;11.53;;;5.90;99.90;;;;;;1896326;75;21147;-86
2022/12/15 17:20:32;;;;;;;14.35;11.28;;;5.90;99.90;;;;;;1895423;75;21098;-87
2022/12/15 17:23:25;;;;;;;12.65;10.40;;;5.90;99.90;;;;;;1914768;75;21157;-87
2022/12/15 17:26:20;;;;;;;13.95;10.32;;;5.90;99.90;;;;;;1884076;76;21159;-86
2022/12/15 17:29:16;;;;;;;13.30;10.23;;;5.90;99.90;;;;;;1884385;76;21114;-87
2022/12/15 17:32:12;;;;;;;13.22;10.00;;;5.90;99.90;;;;;;1884180;75;21142;-88
2022/12/15 17:35:04;;;;;;;12.00;10.25;;;5.90;99.90;;;;;;1891140;75;21137;-87
2022/12/15 17:37:55;;;;;;;13.50;10.55;;;5.90;99.90;;;;;;1895140;75;21082;-86
2022/12/15 17:40:49;;;;;;;14.90;9.68;;;5.90;99.90;;;;;;1898431;75;21079;-86
2022/12/15 17:43:41;;;;;;;15.15;11.05;;;5.90;99.90;;;;;;1898191;75;21176;-87
2022/12/15 17:46:33;;;;;;;14.03;10.70;;;5.90;99.90;;;;;;1897820;74;21083;-85
2022/12/15 17:49:25;;;;;;;16.20;11.55;;;5.90;99.90;;;;;;1906291;75;21579;-86
2022/12/15 17:52:27;;;;;;;14.70;10.60;;;5.90;99.90;;;;;;1905281;75;21106;-87
2022/12/15 17:55:26;;;;;;;15.08;11.35;;;5.90;99.90;;;;;;1889886;75;21091;-87
2022/12/15 17:58:20;;;;;;;16.30;11.73;;;5.90;99.90;;;;;;1898049;75;21541;-86
2022/12/15 18:01:13;;;;;;;12.70;10.18;;;5.90;99.90;;;;;;1893906;75;21256;-87
2022/12/15 18:04:05;;;;;;;14.75;10.63;;;6.00;99.90;;;;;;1900999;75;21091;-86
2022/12/15 18:06:57;;;;;;;15.45;11.35;;;6.00;99.90;;;;;;1887380;75;21109;-87
2022/12/15 18:09:55;;;;;;;13.70;10.53;;;6.00;99.90;;;;;;1899105;75;21167;-86
2022/12/15 18:12:46;;;;;;;13.83;10.68;;;6.00;99.90;;;;;;1894643;75;21099;-86
2022/12/15 18:15:38;;;;;;;13.25;9.98;;;6.00;99.90;;;;;;1894135;75;21124;-86
2022/12/15 18:18:30;;;;;;;13.32;10.23;;;6.00;99.90;;;;;;1892458;75;21068;-86
2022/12/15 18:21:23;;;;;;;12.90;10.18;;;6.00;99.90;;;;;;1853267;77;21177;-86
2022/12/15 18:24:20;;;;;;;13.72;10.58;;;6.10;99.90;;;;;;1823548;77;21231;-86
2022/12/15 18:27:20;;;;;;;13.08;10.40;;;6.10;99.90;;;;;;1823988;77;21148;-86
2022/12/15 18:30:20;;;;;;;12.75;10.58;;;6.10;99.90;;;;;;1828270;77;21103;-87
2022/12/15 18:33:12;;;;;;;12.20;9.93;;;6.10;99.90;;;;;;1885078;75;21196;-86
2022/12/15 18:36:04;;;;;;;13.55;10.05;;;6.10;99.90;;;;;;1886132;75;21118;-87
2022/12/15 18:38:56;;;;;;;11.78;9.40;;;6.10;99.90;;;;;;1885478;75;21152;-88
2022/12/15 18:41:50;;;;;;;14.03;11.15;;;6.10;99.90;;;;;;1882231;75;21198;-86
2022/12/15 18:44:55;;;;;;;14.83;11.03;;;6.10;99.90;;;;;;1882034;75;21091;-86
2022/12/15 18:47:47;;;;;;;13.43;10.58;;;6.20;99.90;;;;;;1894574;75;21150;-86
2022/12/15 18:50:39;;;;;;;17.87;12.55;;;6.20;99.90;;;;;;1885634;75;21141;-86
2022/12/15 18:53:33;;;;;;;16.12;12.68;;;6.20;99.90;;;;;;1884806;75;21115;-86
2022/12/15 18:56:25;;;;;;;14.25;11.05;;;6.20;99.90;;;;;;1885176;75;21169;-87
2022/12/15 18:59:18;;;;;;;13.68;10.58;;;6.20;99.90;;;;;;1905523;75;21091;-86
2022/12/15 19:02:10;;;;;;;11.85;9.30;;;6.20;99.90;;;;;;1892207;75;21197;-87
2022/12/15 19:05:02;;;;;;;11.30;9.00;;;6.20;99.90;;;;;;1888636;75;21115;-85
2022/12/15 19:10:37;;;;;;;14.40;10.65;;;6.20;99.90;;;;;;1953281;72;22259;-88
2022/12/15 19:13:32;;;;;;;13.58;10.05;;;6.20;99.90;;;;;;1894427;75;21055;-87
2022/12/15 19:16:24;;;;;;;14.95;10.65;;;6.20;99.90;;;;;;1872749;76;21129;-87
2022/12/15 19:22:29;;;;;;;12.80;9.85;;;6.30;99.90;;;;;;1883277;75;21102;-88
2022/12/15 19:25:23;;;;;;;12.18;9.85;;;6.20;99.90;;;;;;1880362;75;21176;-87
2022/12/15 19:30:58;;;;;;;14.98;12.25;;;6.20;99.90;;;;;;1939255;72;22190;-87
2022/12/15 19:33:49;;;;;;;15.28;11.38;;;6.20;99.90;;;;;;1893187;75;21063;-86
2022/12/15 19:36:41;;;;;;;15.23;11.48;;;6.10;99.90;;;;;;1883532;75;21090;-86
2022/12/15 19:39:35;;;;;;;13.78;10.25;;;6.10;99.90;;;;;;1876722;75;21158;-86
2022/12/15 19:42:30;;;;;;;14.07;10.78;;;6.20;99.90;;;;;;1885351;75;21094;-86
2022/12/15 19:45:25;;;;;;;14.63;11.12;;;6.10;99.90;;;;;;1880705;75;21111;-86
2022/12/15 19:48:19;;;;;;;13.50;11.10;;;6.20;99.90;;;;;;1892560;75;21090;-87
2022/12/15 19:51:15;;;;;;;16.17;12.55;;;6.20;99.90;;;;;;1896521;75;21115;-86
2022/12/15 19:54:06;;;;;;;17.85;11.90;;;6.20;99.90;;;;;;1886290;75;21098;-86
2022/12/15 19:57:01;;;;;;;16.17;11.68;;;6.20;99.90;;;;;;1879659;75;21075;-86
2022/12/15 19:59:53;;;;;;;13.40;10.80;;;6.20;99.90;;;;;;1872671;75;21198;-87
2022/12/15 20:05:25;;;;;;;15.80;12.00;;;6.20;99.90;;;;;;1934555;72;22401;-87
2022/12/15 20:08:21;;;;;;;16.05;12.47;;;6.10;99.90;;;;;;1873582;75;21118;-86
2022/12/15 20:11:17;;;;;;;14.30;11.45;;;6.10;99.90;;;;;;1885410;75;21103;-86
2022/12/15 20:14:13;;;;;;;15.88;12.23;;;6.10;99.90;;;;;;1896486;75;21056;-86
2022/12/15 20:17:05;;;;;;;15.85;11.97;;;6.10;99.90;;;;;;1884464;75;21129;-86
2022/12/15 20:20:00;;;;;;;12.93;10.70;;;6.10;99.90;;;;;;1894342;75;21126;-85
2022/12/15 20:22:54;;;;;;;16.42;12.25;;;6.10;99.90;;;;;;1869392;75;21173;-85